Time;durP1;ratioP1;P1;durP2;ratioP2;P2;SDS_P1;SDS_P2;PMS_P1;PMS_P2;Temp;Humidity;BMP_temperature;BMP_pressure;BME280_temperature;BME280_humidity;BME280_pressure;Samples;Min_cycle;Max_cycle;Signal;HPM_P1;HPM_P2
2021/03/08 00:01:05;;;;;;;0.10;0.10;;;;;;;1.99;60.73;100201.08;1734213;82;21502;-48
2021/03/08 00:04:05;;;;;;;0.20;0.20;;;;;;;2.00;60.67;100193.81;1732616;82;21646;-49
2021/03/08 00:07:05;;;;;;;0.13;0.13;;;;;;;2.00;60.78;100197.32;1782329;79;21136;-48
2021/03/08 00:10:09;;;;;;;0.27;0.27;;;;;;;2.00;60.82;100197.85;1764904;81;21418;-48
2021/03/08 00:13:12;;;;;;;0.45;0.33;;;;;;;1.99;61.03;100202.42;1761665;81;21589;-48
2021/03/08 00:16:13;;;;;;;0.10;0.10;;;;;;;1.96;61.25;100200.20;1761501;81;21620;-48
2021/03/08 00:19:13;;;;;;;0.35;0.35;;;;;;;1.93;61.30;100195.27;1764568;81;21130;-48
2021/03/08 00:22:14;;;;;;;0.65;0.65;;;;;;;1.92;61.44;100189.56;1761827;81;21138;-48
2021/03/08 00:25:21;;;;;;;0.37;0.37;;;;;;;1.89;61.52;100189.50;1761696;81;21186;-48
2021/03/08 00:28:22;;;;;;;0.15;0.15;;;;;;;1.88;61.65;100183.83;1761775;81;21185;-48
2021/03/08 00:31:22;;;;;;;0.15;0.15;;;;;;;1.87;61.74;100183.52;1764702;81;21165;-48
2021/03/08 00:34:23;;;;;;;0.25;0.20;;;;;;;1.87;61.84;100174.61;1761850;81;21146;-48
2021/03/08 00:37:30;;;;;;;0.17;0.17;;;;;;;1.85;61.85;100166.75;1761780;81;21135;-48
2021/03/08 00:40:27;;;;;;;0.17;0.17;;;;;;;1.86;61.90;100167.59;1764900;81;21150;-48
2021/03/08 00:43:27;;;;;;;0.30;0.30;;;;;;;1.86;62.01;100164.90;1762066;81;21608;-48
2021/03/08 00:46:28;;;;;;;0.85;0.75;;;;;;;1.83;62.11;100165.33;1761607;81;21148;-48
2021/03/08 00:49:28;;;;;;;0.35;0.33;;;;;;;1.80;62.30;100149.63;1736854;81;21225;-48
2021/03/08 00:52:29;;;;;;;0.25;0.25;;;;;;;1.79;62.38;100152.05;1761894;81;21134;-48
2021/03/08 00:55:29;;;;;;;0.65;0.65;;;;;;;1.77;62.46;100140.67;1761928;81;21162;-48
2021/03/08 00:58:30;;;;;;;0.30;0.30;;;;;;;1.76;62.47;100140.39;1736808;81;21175;-49
2021/03/08 01:01:30;;;;;;;5.97;0.57;;;;;;;1.76;62.50;100137.69;1761785;81;21024;-48
2021/03/08 01:04:31;;;;;;;0.57;0.57;;;;;;;1.76;62.54;100139.04;1761694;81;21686;-48
2021/03/08 01:07:31;;;;;;;1.07;1.02;;;;;;;1.74;62.61;100133.05;1757674;81;21588;-48
2021/03/08 01:10:34;;;;;;;0.10;0.10;;;;;;;1.74;62.62;100132.52;1815531;79;21127;-48
2021/03/08 01:13:39;;;;;;;0.60;0.40;;;;;;;1.73;62.68;100130.86;1815634;78;21434;-48
2021/03/08 01:16:40;;;;;;;0.10;0.10;;;;;;;1.71;62.77;100127.06;1815512;79;21182;-49
2021/03/08 01:19:40;;;;;;;0.10;0.10;;;;;;;1.70;62.89;100126.75;1815553;79;21126;-48
2021/03/08 01:22:41;;;;;;;1.75;0.50;;;;;;;1.68;62.95;100119.45;1815575;79;21162;-48
2021/03/08 01:25:41;;;;;;;0.85;0.85;;;;;;;1.66;63.11;100111.30;1815561;79;21119;-48
2021/03/08 01:28:43;;;;;;;1.65;0.42;;;;;;;1.63;63.24;100107.20;1801048;79;21207;-48
2021/03/08 01:31:43;;;;;;;0.10;0.10;;;;;;;1.61;63.41;100105.25;1783374;80;21553;-48
2021/03/08 01:34:44;;;;;;;0.10;0.10;;;;;;;1.56;63.54;100105.12;1783363;80;21162;-49
2021/03/08 01:37:45;;;;;;;0.30;0.30;;;;;;;1.53;63.72;100106.08;1783591;79;21123;-48
2021/03/08 01:40:46;;;;;;;0.50;0.50;;;;;;;1.49;63.84;100108.42;1783184;80;21618;-48
2021/03/08 01:43:49;;;;;;;0.10;0.10;;;;;;;1.48;63.94;100106.76;1783240;79;21146;-48
2021/03/08 01:46:49;;;;;;;0.10;0.10;;;;;;;1.44;64.08;100105.59;1783229;80;21123;-48
2021/03/08 01:49:50;;;;;;;0.10;0.10;;;;;;;1.44;64.20;100104.25;1783230;80;21119;-48
2021/03/08 01:52:53;;;;;;;0.98;0.40;;;;;;;1.41;64.39;100096.59;1783430;80;21119;-49
2021/03/08 01:55:53;;;;;;;0.47;0.47;;;;;;;1.38;64.60;100098.41;1788146;80;21138;-49
2021/03/08 01:58:55;;;;;;;0.10;0.10;;;;;;;1.38;64.71;100105.14;1788228;80;21434;-48
2021/03/08 02:01:55;;;;;;;0.50;0.50;;;;;;;1.38;64.77;100101.10;1788136;80;21166;-48
2021/03/08 02:04:56;;;;;;;0.15;0.15;;;;;;;1.35;64.85;100097.52;1788180;80;21158;-48
2021/03/08 02:07:57;;;;;;;0.30;0.30;;;;;;;1.34;64.88;100102.63;1762186;80;21138;-48
2021/03/08 02:10:59;;;;;;;0.97;0.93;;;;;;;1.29;65.01;100094.69;1748390;81;21103;-49
2021/03/08 02:14:18;;;;;;;0.10;0.10;;;;;;;1.28;65.21;100097.60;1759627;80;21135;-48
2021/03/08 02:17:26;;;;;;;0.20;0.20;;;;;;;1.26;65.29;100093.81;1759485;81;21147;-48
2021/03/08 02:20:48;;;;;;;0.35;0.35;;;;;;;1.27;65.34;100088.71;1759643;81;21273;-48
2021/03/08 02:24:18;;;;;;;0.10;0.10;;;;;;;1.27;65.37;100087.36;1759770;81;21154;-48
2021/03/08 02:27:58;;;;;;;0.30;0.30;;;;;;;1.29;65.41;100092.53;1759688;81;21107;-48
2021/03/08 02:31:01;;;;;;;0.42;0.42;;;;;;;1.29;65.51;100093.34;1759724;81;21454;-48
2021/03/08 02:34:15;;;;;;;0.45;0.45;;;;;;;1.31;65.58;100110.63;1748119;81;21159;-48
2021/03/08 02:37:27;;;;;;;0.13;0.13;;;;;;;1.29;65.67;100105.46;1759725;80;21118;-48
2021/03/08 02:40:31;;;;;;;0.17;0.17;;;;;;;1.29;65.75;100097.92;1748091;81;21431;-48
2021/03/08 02:43:52;;;;;;;0.30;0.25;;;;;;;1.28;65.79;100091.69;1759807;81;21142;-48
2021/03/08 02:46:54;;;;;;;0.20;0.20;;;;;;;1.29;65.88;100088.50;1759673;81;21225;-48
2021/03/08 02:49:55;;;;;;;0.10;0.10;;;;;;;1.28;65.99;100090.34;1759481;80;21119;-49
2021/03/08 02:52:59;;;;;;;4.12;0.78;;;;;;;1.28;66.03;100089.52;1729020;81;21139;-48
2021/03/08 02:56:04;;;;;;;0.05;0.05;;;;;;;1.26;66.16;100101.88;1759561;81;21146;-48
2021/03/08 02:59:04;;;;;;;0.20;0.20;;;;;;;1.23;66.30;100083.47;1759667;81;21130;-48
2021/03/08 03:02:06;;;;;;;1.30;0.62;;;;;;;1.21;66.54;100089.63;1759423;80;21143;-48
2021/03/08 03:05:06;;;;;;;0.10;0.10;;;;;;;1.17;66.55;100079.01;1728914;81;21569;-48
2021/03/08 03:08:07;;;;;;;0.40;0.40;;;;;;;1.17;66.69;100076.32;1763373;80;21024;-48
2021/03/08 03:11:07;;;;;;;0.20;0.20;;;;;;;1.16;66.75;100076.00;1787932;80;21129;-49
2021/03/08 03:14:08;;;;;;;0.10;0.10;;;;;;;1.15;66.82;100077.59;1788040;80;21142;-48
2021/03/08 03:17:12;;;;;;;0.33;0.33;;;;;;;1.13;66.87;100069.73;1788022;80;21154;-48
2021/03/08 03:20:16;;;;;;;0.50;0.50;;;;;;;1.13;66.96;100072.42;1766076;80;21142;-48
2021/03/08 03:23:17;;;;;;;0.65;0.42;;;;;;;1.11;67.00;100070.48;1788114;80;21130;-48
2021/03/08 03:26:17;;;;;;;0.00;0.00;;;;;;;1.11;67.09;100073.70;1765840;80;21115;-48
2021/03/08 03:29:18;;;;;;;0.10;0.10;;;;;;;1.08;67.22;100072.28;1788180;80;21122;-49
2021/03/08 03:32:20;;;;;;;0.10;0.10;;;;;;;1.04;67.40;100067.08;1728075;80;21175;-48
2021/03/08 03:35:21;;;;;;;0.35;0.35;;;;;;;1.01;67.56;100076.39;1788204;80;21134;-48
2021/03/08 03:38:25;;;;;;;0.10;0.10;;;;;;;0.98;67.63;100072.81;1761497;80;21127;-48
2021/03/08 03:41:25;;;;;;;0.35;0.35;;;;;;;0.98;67.78;100070.66;1787984;80;21175;-48
2021/03/08 03:44:25;;;;;;;0.40;0.40;;;;;;;0.96;67.79;100071.40;1787985;80;21289;-49
2021/03/08 03:47:26;;;;;;;0.62;0.62;;;;;;;0.93;67.92;100067.82;1788102;80;21061;-48
2021/03/08 03:50:28;;;;;;;0.25;0.25;;;;;;;0.92;67.98;100059.47;1787973;80;21178;-48
2021/03/08 03:53:29;;;;;;;0.40;0.40;;;;;;;0.91;68.03;100063.19;1788158;80;21126;-48
2021/03/08 03:56:32;;;;;;;0.15;0.15;;;;;;;0.88;68.01;100064.45;1788081;80;21581;-49
2021/03/08 03:59:42;;;;;;;0.13;0.13;;;;;;;0.86;68.11;100067.36;1766514;80;21159;-48
2021/03/08 04:03:12;;;;;;;0.30;0.30;;;;;;;0.84;68.10;100069.48;1788128;80;21704;-48
2021/03/08 04:06:13;;;;;;;0.88;0.88;;;;;;;0.84;68.06;100074.86;1765995;80;21127;-48
2021/03/08 04:09:13;;;;;;;0.17;0.17;;;;;;;0.83;68.00;100065.13;1744262;81;21468;-48
2021/03/08 04:12:15;;;;;;;0.80;0.57;;;;;;;0.82;67.98;100065.38;1744064;81;21415;-48
2021/03/08 04:15:17;;;;;;;0.30;0.30;;;;;;;0.81;67.99;100067.22;1755851;81;21423;-48
2021/03/08 04:18:17;;;;;;;0.40;0.40;;;;;;;0.78;68.06;100062.29;1755753;81;21589;-48
2021/03/08 04:21:18;;;;;;;0.53;0.53;;;;;;;0.79;67.94;100062.61;1755749;81;21168;-49
2021/03/08 04:24:20;;;;;;;0.10;0.10;;;;;;;0.79;67.91;100055.88;1755669;81;21130;-48
2021/03/08 04:27:20;;;;;;;1.45;1.20;;;;;;;0.78;67.91;100050.19;1755867;81;21987;-48
2021/03/08 04:30:22;;;;;;;0.15;0.15;;;;;;;0.78;67.86;100052.88;1744589;81;21454;-48
2021/03/08 04:33:23;;;;;;;0.47;0.40;;;;;;;0.78;67.85;100058.25;1756010;81;21170;-48
2021/03/08 04:36:24;;;;;;;2.52;0.53;;;;;;;0.77;67.94;100053.94;1744278;81;21649;-48
2021/03/08 04:39:25;;;;;;;0.30;0.30;;;;;;;0.75;67.87;100049.30;1725712;81;21175;-48
2021/03/08 04:42:25;;;;;;;0.25;0.25;;;;;;;0.73;67.86;100060.80;1755982;81;21602;-48
2021/03/08 04:45:27;;;;;;;1.20;0.42;;;;;;;0.74;67.86;100057.08;1755890;81;21151;-48
2021/03/08 04:48:27;;;;;;;0.40;0.25;;;;;;;0.77;67.72;100055.81;1756027;81;21600;-48
2021/03/08 04:51:28;;;;;;;2.02;1.52;;;;;;;0.79;67.65;100051.84;1744262;81;21206;-48
2021/03/08 04:54:28;;;;;;;0.30;0.30;;;;;;;0.78;67.62;100050.19;1755967;81;21685;-48
2021/03/08 04:57:29;;;;;;;0.68;0.68;;;;;;;0.78;67.62;100051.53;1755889;81;21123;-48
2021/03/08 05:00:31;;;;;;;0.57;0.57;;;;;;;0.79;67.64;100058.58;1756156;81;21127;-48
2021/03/08 05:03:33;;;;;;;0.30;0.30;;;;;;;0.81;67.66;100065.05;1755905;81;21162;-48
2021/03/08 05:06:34;;;;;;;0.20;0.20;;;;;;;0.83;67.57;100062.44;1755801;81;20997;-48
2021/03/08 05:09:35;;;;;;;0.60;0.53;;;;;;;0.87;67.51;100062.83;1791299;80;21529;-48
2021/03/08 05:12:36;;;;;;;0.28;0.28;;;;;;;0.88;67.41;100060.95;1791129;80;21150;-48
2021/03/08 05:15:36;;;;;;;0.85;0.80;;;;;;;0.91;67.31;100067.22;1751587;80;21138;-48
2021/03/08 05:18:37;;;;;;;0.05;0.05;;;;;;;0.94;67.34;100074.83;1791317;80;21154;-48
2021/03/08 05:21:39;;;;;;;1.55;0.75;;;;;;;0.97;67.19;100069.02;1791195;80;21569;-48
2021/03/08 05:24:40;;;;;;;1.35;0.68;;;;;;;1.02;66.89;100069.17;1791316;80;29643;-48
2021/03/08 05:27:40;;;;;;;0.47;0.47;;;;;;;1.06;66.77;100062.27;1791233;80;21162;-48
2021/03/08 05:30:40;;;;;;;1.85;1.75;;;;;;;1.09;66.67;100065.88;1770864;80;21122;-48
2021/03/08 05:33:41;;;;;;;0.98;0.75;;;;;;;1.13;66.68;100068.39;1770801;80;21643;-49
2021/03/08 05:36:46;;;;;;;0.50;0.50;;;;;;;1.17;66.45;100066.09;1791308;80;21166;-48
2021/03/08 05:39:48;;;;;;;0.42;0.42;;;;;;;1.23;66.53;100068.67;1766997;80;21155;-48
2021/03/08 05:42:48;;;;;;;0.45;0.45;;;;;;;1.26;66.26;100072.27;1791045;80;21142;-48
2021/03/08 05:46:03;;;;;;;5.25;0.82;;;;;;;1.32;66.12;100072.41;1770707;80;21153;-48
2021/03/08 05:49:34;;;;;;;0.37;0.25;;;;;;;1.37;66.06;100076.59;1766773;81;21173;-48
2021/03/08 05:52:52;;;;;;;0.75;0.75;;;;;;;1.40;66.02;100078.81;1791066;80;21459;-48
2021/03/08 05:56:24;;;;;;;0.10;0.10;;;;;;;1.43;66.00;100081.05;1791144;80;21151;-48
2021/03/08 05:59:54;;;;;;;0.10;0.10;;;;;;;1.45;66.02;100082.45;1779251;77;21150;-48
2021/03/08 06:03:05;;;;;;;0.13;0.13;;;;;;;1.48;65.90;100091.95;1748852;81;21138;-48
2021/03/08 06:06:33;;;;;;;1.55;1.17;;;;;;;1.51;65.84;100088.83;1793359;79;21158;-48
2021/03/08 06:09:35;;;;;;;0.13;0.13;;;;;;;1.55;65.59;100094.56;1791085;79;21480;-48
2021/03/08 06:12:43;;;;;;;0.10;0.10;;;;;;;1.56;65.61;100100.23;1811071;79;21447;-49
2021/03/08 06:15:44;;;;;;;3.50;0.93;;;;;;;1.58;65.62;100100.83;1784246;79;21178;-48
2021/03/08 06:18:52;;;;;;;0.40;0.40;;;;;;;1.57;65.55;100105.40;1765638;79;21513;-48
2021/03/08 06:21:52;;;;;;;0.20;0.20;;;;;;;1.58;65.71;100116.45;1778546;80;21130;-48
2021/03/08 06:24:53;;;;;;;0.42;0.30;;;;;;;1.57;65.88;100124.25;1799198;79;21597;-48
2021/03/08 06:27:53;;;;;;;0.20;0.20;;;;;;;1.57;65.99;100118.87;1798629;79;21450;-48
2021/03/08 06:30:56;;;;;;;0.57;0.57;;;;;;;1.55;65.99;100120.96;1785347;79;21155;-48
2021/03/08 06:33:59;;;;;;;0.23;0.23;;;;;;;1.54;66.12;100123.37;1785476;79;21122;-48
2021/03/08 06:37:00;;;;;;;0.90;0.85;;;;;;;1.56;66.24;100128.01;1809272;79;21146;-48
2021/03/08 06:40:00;;;;;;;0.62;0.62;;;;;;;1.56;66.30;100125.31;1808830;78;21577;-48
2021/03/08 06:43:00;;;;;;;0.10;0.10;;;;;;;1.57;66.34;100124.78;1771648;79;21115;-48
2021/03/08 06:46:03;;;;;;;0.20;0.20;;;;;;;1.58;66.31;100116.45;1766800;79;21119;-48
2021/03/08 06:49:03;;;;;;;0.40;0.40;;;;;;;1.59;66.46;100116.77;1766169;80;21191;-48
2021/03/08 06:52:15;;;;;;;0.75;0.75;;;;;;;1.63;66.57;100109.89;1761783;80;21126;-48
2021/03/08 06:55:16;;;;;;;0.15;0.15;;;;;;;1.68;66.54;100107.83;1784352;79;21151;-48
2021/03/08 06:58:24;;;;;;;0.45;0.45;;;;;;;1.74;66.40;100104.77;1807262;79;21116;-49
2021/03/08 07:01:39;;;;;;;0.57;0.57;;;;;;;1.79;66.50;100101.67;1809545;78;21558;-48
2021/03/08 07:04:42;;;;;;;0.17;0.17;;;;;;;1.86;66.52;100098.89;1806479;79;21100;-48
2021/03/08 07:08:03;;;;;;;0.50;0.50;;;;;;;1.93;66.45;100104.47;1745530;79;21179;-48
2021/03/08 07:11:04;;;;;;;0.20;0.20;;;;;;;2.01;66.30;100097.10;1729876;80;22097;-48
2021/03/08 07:14:05;;;;;;;0.65;0.65;;;;;;;2.04;66.23;100102.84;1769790;80;21131;-49
2021/03/08 07:17:06;;;;;;;1.00;0.70;;;;;;;2.06;66.33;100107.48;1764620;79;21178;-48
2021/03/08 07:20:09;;;;;;;0.20;0.20;;;;;;;2.11;66.38;100111.64;1745398;80;21106;-49
2021/03/08 07:23:09;;;;;;;0.20;0.20;;;;;;;2.17;66.55;100105.84;1762142;80;21355;-48
2021/03/08 07:26:14;;;;;;;0.68;0.68;;;;;;;2.25;66.44;100101.98;1733188;81;21158;-49
2021/03/08 07:29:19;;;;;;;0.20;0.20;;;;;;;2.28;66.33;100109.62;1726500;82;21178;-48
2021/03/08 07:32:19;;;;;;;0.15;0.15;;;;;;;2.32;66.28;100115.64;1741305;80;21597;-48
2021/03/08 07:35:20;;;;;;;0.10;0.10;;;;;;;2.34;66.15;100113.53;1712258;82;21100;-48
2021/03/08 07:38:38;;;;;;;1.95;0.85;;;;;;;2.36;66.27;100112.78;1747418;80;21155;-49
2021/03/08 07:41:39;;;;;;;0.33;0.33;;;;;;;2.39;66.27;100116.89;1716519;82;21487;-48
2021/03/08 07:44:39;;;;;;;6.83;0.62;;;;;;;2.45;66.30;100117.31;1737167;82;21143;-49
2021/03/08 07:47:39;;;;;;;0.10;0.10;;;;;;;2.49;66.32;100106.33;1703701;81;21162;-49
2021/03/08 07:50:40;;;;;;;3.85;1.37;;;;;;;2.53;66.28;100114.80;1722209;82;21125;-48
2021/03/08 07:53:44;;;;;;;0.20;0.20;;;;;;;2.57;66.24;100118.64;1738921;81;21156;-48
2021/03/08 07:56:44;;;;;;;0.05;0.05;;;;;;;2.61;66.30;100119.02;1736964;81;21191;-46
2021/03/08 07:59:44;;;;;;;0.78;0.53;;;;;;;2.65;66.53;100105.36;1731291;82;21160;-49
2021/03/08 08:02:45;;;;;;;0.10;0.10;;;;;;;2.74;66.44;100113.36;1720241;81;21127;-48
2021/03/08 08:05:45;;;;;;;0.40;0.40;;;;;;;2.81;66.28;100105.97;1768058;81;21140;-48
2021/03/08 08:08:55;;;;;;;0.30;0.30;;;;;;;2.86;66.16;100095.28;1754005;81;22189;-48
2021/03/08 08:11:55;;;;;;;0.23;0.23;;;;;;;2.91;66.32;100103.48;1802580;79;21166;-48
2021/03/08 08:14:57;;;;;;;0.10;0.10;;;;;;;2.99;66.17;100101.80;1735347;78;21130;-48
2021/03/08 08:17:58;;;;;;;0.40;0.40;;;;;;;3.07;65.94;100104.64;1771221;79;21618;-48
2021/03/08 08:21:00;;;;;;;0.00;0.00;;;;;;;3.09;65.96;100103.88;1790651;79;21114;-48
2021/03/08 08:24:04;;;;;;;0.10;0.10;;;;;;;3.14;65.96;100100.44;1744548;81;21143;-48
2021/03/08 08:27:05;;;;;;;1.02;0.98;;;;;;;3.20;65.91;100091.41;1766289;79;21456;-48
2021/03/08 08:30:06;;;;;;;0.72;0.55;;;;;;;3.34;65.90;100088.72;1738498;79;21197;-48
2021/03/08 08:33:07;;;;;;;0.95;0.88;;;;;;;3.48;65.45;100092.48;1792909;79;21477;-48
2021/03/08 08:36:24;;;;;;;1.22;0.82;;;;;;;3.60;65.48;100090.55;1796117;79;21118;-48
2021/03/08 08:39:24;;;;;;;1.65;1.07;;;;;;;3.71;65.13;100090.19;1796029;79;21194;-49
2021/03/08 08:42:34;;;;;;;0.72;0.72;;;;;;;3.80;64.87;100093.61;1795270;79;21434;-48
2021/03/08 08:45:36;;;;;;;0.40;0.33;;;;;;;3.88;64.76;100101.34;1795957;79;21612;-48
2021/03/08 08:48:36;;;;;;;1.17;0.47;;;;;;;3.94;64.23;100094.13;1781958;79;21124;-48
2021/03/08 08:51:59;;;;;;;0.20;0.20;;;;;;;3.97;64.14;100100.39;1796551;79;21126;-48
2021/03/08 08:55:00;;;;;;;0.37;0.33;;;;;;;4.03;64.34;100097.23;1811075;79;21142;-49
2021/03/08 08:58:31;;;;;;;0.10;0.10;;;;;;;4.10;64.04;100093.84;1761286;80;21600;-48
2021/03/08 09:01:34;;;;;;;0.35;0.33;;;;;;;4.20;63.98;100095.89;1809540;79;21522;-49
2021/03/08 09:04:41;;;;;;;1.45;0.78;;;;;;;4.33;63.50;100091.53;1808694;79;21127;-49
2021/03/08 09:07:43;;;;;;;0.55;0.37;;;;;;;4.35;63.27;100087.20;1809011;79;21502;-47
2021/03/08 09:10:43;;;;;;;0.23;0.23;;;;;;;4.42;63.03;100089.21;1808263;79;21697;-47
2021/03/08 09:13:44;;;;;;;0.75;0.47;;;;;;;4.46;62.91;100084.95;1783615;79;21187;-43
2021/03/08 09:16:49;;;;;;;0.65;0.65;;;;;;;4.46;62.81;100095.77;1778698;79;21514;-43
2021/03/08 09:19:52;;;;;;;0.20;0.20;;;;;;;4.46;62.68;100095.77;1791742;80;21103;-44
2021/03/08 09:22:57;;;;;;;0.90;0.80;;;;;;;4.42;62.70;100100.03;1789947;79;21404;-43
2021/03/08 09:26:05;;;;;;;0.30;0.30;;;;;;;4.33;62.59;100100.16;1778516;80;21178;-45
2021/03/08 09:29:05;;;;;;;0.82;0.82;;;;;;;4.17;62.85;100103.97;1766249;80;21182;-44
2021/03/08 09:32:08;;;;;;;0.40;0.40;;;;;;;4.03;63.13;100109.41;1789486;79;21581;-44
2021/03/08 09:35:14;;;;;;;0.30;0.30;;;;;;;3.94;63.37;100109.53;1762537;79;21436;-44
2021/03/08 09:38:29;;;;;;;0.62;0.62;;;;;;;3.84;63.77;100110.98;1771900;80;21128;-45
2021/03/08 09:41:36;;;;;;;0.30;0.30;;;;;;;3.75;64.11;100107.57;1808942;79;21123;-45
2021/03/08 09:44:47;;;;;;;0.10;0.10;;;;;;;3.67;64.62;100115.54;1766914;81;21143;-45
2021/03/08 09:47:48;;;;;;;0.10;0.10;;;;;;;3.65;64.82;100116.30;1766467;80;21151;-45
2021/03/08 09:50:50;;;;;;;0.37;0.25;;;;;;;3.68;64.96;100106.36;1807730;79;21625;-45
2021/03/08 09:53:54;;;;;;;0.57;0.47;;;;;;;3.72;65.06;100110.23;1777694;79;21111;-45
2021/03/08 09:56:54;;;;;;;0.28;0.20;;;;;;;3.73;64.84;100114.55;1802188;79;21188;-45
2021/03/08 10:00:04;;;;;;;0.30;0.30;;;;;;;3.65;64.99;100119.01;1793755;79;21554;-45
2021/03/08 10:03:07;;;;;;;3.98;0.68;;;;;;;3.55;65.19;100116.12;1756836;81;21198;-45
2021/03/08 10:06:08;;;;;;;0.25;0.25;;;;;;;3.45;65.48;100117.55;1796806;79;21119;-45
2021/03/08 10:09:27;;;;;;;0.50;0.50;;;;;;;3.35;65.88;100118.70;1780397;80;21130;-44
2021/03/08 10:12:31;;;;;;;2.92;0.95;;;;;;;3.28;66.35;100131.52;1767107;79;21162;-45
2021/03/08 10:15:31;;;;;;;0.03;0.03;;;;;;;3.17;66.82;100129.69;1748969;81;21154;-45
2021/03/08 10:18:35;;;;;;;1.17;0.82;;;;;;;3.08;67.40;100135.97;1820888;78;21168;-45
2021/03/08 10:21:35;;;;;;;0.50;0.50;;;;;;;3.00;67.72;100132.30;1755798;80;21133;-46
2021/03/08 10:24:43;;;;;;;0.90;0.90;;;;;;;2.89;68.37;100134.47;1755104;81;21573;-45
2021/03/08 10:27:43;;;;;;;0.55;0.55;;;;;;;2.82;68.97;100133.27;1810252;78;21158;-45
2021/03/08 10:30:44;;;;;;;0.45;0.45;;;;;;;2.68;68.61;100136.72;1775053;79;21129;-45
2021/03/08 10:33:44;;;;;;;0.53;0.45;;;;;;;2.49;68.73;100145.97;1764616;81;21144;-45
2021/03/08 10:36:46;;;;;;;0.28;0.28;;;;;;;2.33;68.42;100148.84;1797568;79;21150;-45
2021/03/08 10:39:46;;;;;;;0.55;0.37;;;;;;;2.21;68.33;100153.39;1766976;81;21089;-45
2021/03/08 10:42:48;;;;;;;1.22;0.68;;;;;;;2.10;67.65;100154.48;1776381;79;21129;-44
2021/03/08 10:45:48;;;;;;;3.72;0.93;;;;;;;2.01;66.42;100157.21;1744183;81;21667;-45
2021/03/08 10:49:11;;;;;;;0.23;0.23;;;;;;;1.90;65.93;100163.38;1745435;79;21115;-46
2021/03/08 10:52:14;;;;;;;0.10;0.10;;;;;;;1.79;65.46;100155.55;1767066;79;21133;-47
2021/03/08 10:55:16;;;;;;;0.03;0.03;;;;;;;1.69;65.26;100166.88;1739366;81;21451;-45
2021/03/08 10:58:18;;;;;;;0.10;0.10;;;;;;;1.63;65.46;100167.80;1761135;81;21126;-45
2021/03/08 11:01:18;;;;;;;0.20;0.20;;;;;;;1.61;65.71;100160.47;1763472;81;21137;-46
2021/03/08 11:04:31;;;;;;;0.20;0.20;;;;;;;1.61;65.87;100164.50;1778939;79;21139;-45
2021/03/08 11:07:40;;;;;;;0.10;0.10;;;;;;;1.59;65.85;100165.25;1763704;81;21165;-44
2021/03/08 11:10:43;;;;;;;0.10;0.10;;;;;;;1.51;65.63;100172.30;1798598;79;21143;-44
2021/03/08 11:13:44;;;;;;;0.10;0.10;;;;;;;1.41;65.98;100160.72;1805884;79;21617;-45
2021/03/08 11:16:50;;;;;;;0.20;0.20;;;;;;;1.36;66.48;100158.38;1806315;79;21573;-45
2021/03/08 11:19:51;;;;;;;0.03;0.03;;;;;;;1.36;66.59;100154.34;1793778;79;21143;-44
2021/03/08 11:23:04;;;;;;;0.00;0.00;;;;;;;1.41;66.96;100150.45;1787951;79;21171;-45
2021/03/08 11:26:11;;;;;;;0.00;0.00;;;;;;;1.49;67.08;100149.63;1779879;80;21191;-44
2021/03/08 11:29:11;;;;;;;0.20;0.20;;;;;;;1.57;66.83;100156.57;1756822;81;21189;-45
2021/03/08 11:32:14;;;;;;;0.10;0.10;;;;;;;1.61;66.62;100163.69;1772630;79;21126;-45
2021/03/08 11:35:37;;;;;;;0.03;0.03;;;;;;;1.64;66.76;100157.31;1767750;80;21505;-44
2021/03/08 11:38:38;;;;;;;0.10;0.10;;;;;;;1.67;66.49;100158.72;1742268;81;21602;-45
2021/03/08 11:41:39;;;;;;;0.10;0.10;;;;;;;1.69;65.33;100159.32;1757855;81;21500;-45
2021/03/08 11:44:39;;;;;;;0.10;0.10;;;;;;;1.66;64.43;100170.03;1811680;79;21513;-45
2021/03/08 11:47:40;;;;;;;0.00;0.00;;;;;;;1.67;63.91;100170.84;1798189;79;21142;-45
2021/03/08 11:50:40;;;;;;;0.10;0.10;;;;;;;1.66;63.64;100171.38;1804954;79;21175;-45
2021/03/08 11:53:43;;;;;;;0.10;0.10;;;;;;;1.66;64.20;100176.77;1783120;79;21272;-44
2021/03/08 11:56:44;;;;;;;0.00;0.00;;;;;;;1.62;64.82;100171.52;1784818;79;21119;-44
2021/03/08 11:59:44;;;;;;;0.10;0.10;;;;;;;1.59;65.48;100177.38;1780880;79;21162;-46
2021/03/08 12:02:47;;;;;;;0.10;0.10;;;;;;;1.56;65.08;100166.21;1785960;79;21528;-45
2021/03/08 12:05:48;;;;;;;1.27;1.17;;;;;;;1.54;65.25;100166.45;1791586;79;21458;-44
2021/03/08 12:08:50;;;;;;;0.00;0.00;;;;;;;1.59;65.18;100161.21;1784944;79;21190;-45
2021/03/08 12:11:51;;;;;;;0.10;0.10;;;;;;;1.65;65.36;100167.55;1789478;79;21490;-44
2021/03/08 12:14:51;;;;;;;0.20;0.20;;;;;;;1.71;65.10;100182.29;1802937;79;21649;-45
2021/03/08 12:17:52;;;;;;;0.03;0.03;;;;;;;1.74;63.87;100177.50;1801231;79;21179;-45
2021/03/08 12:20:53;;;;;;;0.10;0.10;;;;;;;1.74;63.22;100177.50;1785436;79;21203;-45
2021/03/08 12:23:54;;;;;;;0.20;0.20;;;;;;;1.77;63.24;100187.28;1783394;79;21265;-45
2021/03/08 12:26:55;;;;;;;0.15;0.15;;;;;;;1.82;62.98;100179.87;1797810;79;21171;-45
2021/03/08 12:29:56;;;;;;;0.00;0.00;;;;;;;1.86;62.80;100169.75;1784371;79;21147;-46
2021/03/08 12:32:57;;;;;;;0.10;0.10;;;;;;;1.95;62.38;100176.98;1777731;80;21199;-45
2021/03/08 12:36:01;;;;;;;0.30;0.30;;;;;;;2.05;62.86;100166.48;1786785;79;21116;-45
2021/03/08 12:39:04;;;;;;;0.10;0.10;;;;;;;2.25;62.80;100169.37;1780559;79;21151;-44
2021/03/08 12:42:04;;;;;;;0.10;0.10;;;;;;;2.42;61.99;100171.70;1782860;79;21625;-45
2021/03/08 12:45:04;;;;;;;0.10;0.10;;;;;;;2.51;61.90;100184.33;1779841;79;21133;-45
2021/03/08 12:48:05;;;;;;;0.10;0.10;;;;;;;2.61;61.71;100188.63;1804123;79;21576;-44
2021/03/08 12:51:06;;;;;;;0.10;0.10;;;;;;;2.68;60.98;100183.13;1779761;79;21154;-44
2021/03/08 12:54:08;;;;;;;0.28;0.28;;;;;;;2.68;60.98;100193.91;1783897;79;21186;-45
2021/03/08 12:57:08;;;;;;;0.00;0.00;;;;;;;2.66;60.51;100190.62;1780916;80;21147;-45
2021/03/08 13:00:14;;;;;;;0.13;0.13;;;;;;;2.71;60.47;100188.05;1803954;79;21139;-45
2021/03/08 13:03:14;;;;;;;0.28;0.28;;;;;;;2.75;60.17;100187.88;1758542;81;21505;-45
2021/03/08 13:06:17;;;;;;;0.30;0.30;;;;;;;2.77;59.98;100195.22;1777605;80;21164;-44
2021/03/08 13:09:20;;;;;;;0.10;0.10;;;;;;;2.77;59.58;100192.52;1790651;79;21504;-45
2021/03/08 13:12:21;;;;;;;0.10;0.10;;;;;;;2.76;59.44;100190.32;1814622;78;21147;-44
2021/03/08 13:15:22;;;;;;;0.10;0.10;;;;;;;2.75;59.13;100191.92;1815144;77;21202;-44
2021/03/08 13:18:24;;;;;;;1.02;0.28;;;;;;;2.73;59.41;100199.43;1812881;78;21146;-45
2021/03/08 13:21:24;;;;;;;0.10;0.10;;;;;;;2.75;59.03;100191.92;1803960;79;21174;-46
2021/03/08 13:24:25;;;;;;;0.10;0.10;;;;;;;2.82;57.98;100195.33;1815458;79;21569;-44
2021/03/08 13:27:25;;;;;;;0.00;0.00;;;;;;;2.82;57.69;100196.69;1807873;78;21565;-45
2021/03/08 13:30:27;;;;;;;0.47;0.47;;;;;;;2.79;57.93;100203.88;1796274;79;22114;-45
2021/03/08 13:33:28;;;;;;;0.53;0.53;;;;;;;2.85;58.51;100199.44;1801069;79;21423;-44
2021/03/08 13:36:28;;;;;;;0.20;0.20;;;;;;;2.86;57.91;100201.88;1801499;79;21143;-43
2021/03/08 13:39:33;;;;;;;1.35;0.30;;;;;;;2.79;57.09;100211.97;1799276;79;21491;-43
2021/03/08 13:42:33;;;;;;;0.08;0.08;;;;;;;2.70;55.31;100209.34;1813690;79;21167;-43
2021/03/08 13:45:34;;;;;;;0.10;0.10;;;;;;;2.59;53.84;100217.16;1790858;79;21617;-43
2021/03/08 13:48:55;;;;;;;0.10;0.10;;;;;;;2.55;53.62;100209.27;1783348;80;21161;-44
2021/03/08 13:51:57;;;;;;;0.10;0.10;;;;;;;2.56;53.51;100207.38;1789038;79;21127;-44
2021/03/08 13:54:57;;;;;;;3.58;1.65;;;;;;;2.56;51.93;100201.45;1790522;79;21475;-44
2021/03/08 13:57:57;;;;;;;0.10;0.10;;;;;;;2.53;51.70;100205.97;1783394;80;21158;-44
2021/03/08 14:00:58;;;;;;;0.00;0.00;;;;;;;2.50;51.89;100211.84;1796430;79;21428;-45
2021/03/08 14:04:20;;;;;;;0.10;0.10;;;;;;;2.52;51.59;100207.03;1796358;79;21000;-45
2021/03/08 14:07:21;;;;;;;0.03;0.03;;;;;;;2.63;51.68;100209.98;1810329;78;21418;-44
2021/03/08 14:10:24;;;;;;;0.10;0.10;;;;;;;2.76;51.62;100211.09;1809220;77;22430;-43
2021/03/08 14:13:25;;;;;;;0.08;0.08;;;;;;;2.92;50.43;100210.94;1792438;78;21142;-44
2021/03/08 14:16:25;;;;;;;0.20;0.20;;;;;;;2.99;49.75;100205.72;1790718;79;21141;-44
2021/03/08 14:19:26;;;;;;;0.00;0.00;;;;;;;3.06;49.76;100211.52;1788179;79;21628;-45
2021/03/08 14:22:26;;;;;;;0.00;0.00;;;;;;;3.09;48.88;100215.08;1757282;80;21142;-43
2021/03/08 14:25:27;;;;;;;0.10;0.10;;;;;;;3.01;48.30;100215.72;1761587;80;21138;-43